createdAt,value
2024-04-30T00:01:48.363Z,68.90
2024-04-30T00:04:15.987Z,68.90
2024-04-30T00:06:43.444Z,69.40
2024-04-30T00:09:10.994Z,69.80
2024-04-30T00:11:43.522Z,69.60
2024-04-30T00:14:11.354Z,69.80
2024-04-30T00:16:42.869Z,70.30
2024-04-30T00:19:10.995Z,69.90
2024-04-30T00:21:45.699Z,70.10
2024-04-30T00:24:13.315Z,70.20
2024-04-30T00:26:40.810Z,70.30
2024-04-30T00:29:08.363Z,69.90
2024-04-30T00:31:35.989Z,69.90
2024-04-30T00:34:03.515Z,70.20
2024-04-30T00:36:30.951Z,70.50
2024-04-30T00:38:59.003Z,70.80
2024-04-30T00:41:26.407Z,71.20
2024-04-30T00:43:53.887Z,71.40
2024-04-30T00:46:21.961Z,71.80
2024-04-30T00:48:49.475Z,71.80
2024-04-30T00:51:17.177Z,71.80
2024-04-30T00:53:44.637Z,72.20
2024-04-30T00:56:12.032Z,72.90
2024-04-30T00:58:39.543Z,73.20
2024-04-30T01:01:07.313Z,73.20
2024-04-30T01:03:34.789Z,73.50
2024-04-30T01:06:02.321Z,73.60
2024-04-30T01:08:29.980Z,73.60
2024-04-30T01:10:57.910Z,73.80
2024-04-30T01:13:28.651Z,73.90
2024-04-30T01:15:56.096Z,73.80
2024-04-30T01:18:23.458Z,73.90
2024-04-30T01:20:50.988Z,74.20
2024-04-30T01:23:18.413Z,74.10
2024-04-30T01:25:45.873Z,74.40
2024-04-30T01:28:13.331Z,74.40
2024-04-30T01:30:40.827Z,74.50
2024-04-30T01:33:11.087Z,74.50
2024-04-30T01:35:38.575Z,74.50
2024-04-30T01:38:05.920Z,74.40
2024-04-30T01:40:33.390Z,74.90
2024-04-30T01:43:00.858Z,75.70
2024-04-30T01:45:28.445Z,76.40
2024-04-30T01:47:55.902Z,76.30
2024-04-30T01:50:23.283Z,75.90
2024-04-30T01:52:50.590Z,76.30
2024-04-30T01:55:18.081Z,76.30
2024-04-30T01:57:48.601Z,75.90
2024-04-30T02:00:16.059Z,75.70
2024-04-30T02:02:43.448Z,75.60
2024-04-30T02:05:16.882Z,75.80
2024-04-30T02:07:48.445Z,75.30
2024-04-30T02:10:17.211Z,75.30
2024-04-30T02:12:44.598Z,75.40
2024-04-30T02:15:11.958Z,75.80
2024-04-30T02:17:39.396Z,76.00
2024-04-30T02:20:07.033Z,76.00
2024-04-30T02:22:34.445Z,75.90
2024-04-30T02:25:01.963Z,75.90
2024-04-30T02:27:29.344Z,76.20
2024-04-30T02:29:56.753Z,76.40
2024-04-30T02:32:42.888Z,76.30
2024-04-30T02:35:10.318Z,76.30
2024-04-30T02:37:37.776Z,76.40
2024-04-30T02:40:05.544Z,76.50
2024-04-30T02:42:33.220Z,76.50
2024-04-30T02:45:00.647Z,76.80
2024-04-30T02:47:28.468Z,76.90
2024-04-30T02:49:55.885Z,76.90
2024-04-30T02:52:23.318Z,76.80
2024-04-30T02:54:50.856Z,77.10
2024-04-30T02:57:18.341Z,77.20
2024-04-30T02:59:45.677Z,77.30
2024-04-30T03:02:13.037Z,77.80
2024-04-30T03:04:45.576Z,77.80
2024-04-30T03:07:13.047Z,76.90
2024-04-30T03:09:40.396Z,76.60
2024-04-30T03:12:07.934Z,76.90
2024-04-30T03:14:35.590Z,77.20
2024-04-30T03:17:03.167Z,77.20
2024-04-30T03:19:30.766Z,77.30
2024-04-30T03:21:58.181Z,77.40
2024-04-30T03:24:25.545Z,77.50
2024-04-30T03:26:52.893Z,77.40
2024-04-30T03:29:20.220Z,77.50
2024-04-30T03:31:47.686Z,77.50
2024-04-30T03:34:15.517Z,77.50
2024-04-30T03:36:43.021Z,77.60
2024-04-30T03:39:12.530Z,77.80
2024-04-30T03:41:40.082Z,77.70
2024-04-30T03:44:08.050Z,77.90
2024-04-30T03:46:35.442Z,77.90
2024-04-30T03:49:02.918Z,78.60
2024-04-30T03:51:30.481Z,79.30
2024-04-30T03:53:57.900Z,80.10
2024-04-30T03:56:25.438Z,80.30
2024-04-30T03:58:52.875Z,80.30
2024-04-30T04:01:20.255Z,80.30
2024-04-30T04:03:47.682Z,80.00
2024-04-30T04:06:17.628Z,79.80
2024-04-30T04:08:45.516Z,79.70
2024-04-30T04:11:31.851Z,79.40
2024-04-30T04:14:17.997Z,79.00
2024-04-30T04:16:45.361Z,79.70
2024-04-30T04:19:12.957Z,80.30
2024-04-30T04:21:40.507Z,80.40
2024-04-30T04:24:08.042Z,80.30
2024-04-30T04:26:35.430Z,80.30
2024-04-30T04:29:07.499Z,80.00
2024-04-30T04:31:34.928Z,80.20
2024-04-30T04:34:04.645Z,80.10
2024-04-30T04:36:32.035Z,79.90
2024-04-30T04:38:59.717Z,79.60
2024-04-30T04:41:27.141Z,79.30
2024-04-30T04:43:54.551Z,78.60
2024-04-30T04:46:22.096Z,78.40
2024-04-30T04:48:49.704Z,78.30
2024-04-30T04:51:17.052Z,78.20
2024-04-30T04:53:44.451Z,78.10
2024-04-30T04:56:11.894Z,78.10
2024-04-30T04:58:39.380Z,78.50
2024-04-30T05:01:09.640Z,78.80
2024-04-30T05:03:38.770Z,78.80
2024-04-30T05:06:06.350Z,78.90
2024-04-30T05:08:33.879Z,78.70
2024-04-30T05:13:17.923Z,78.50
2024-04-30T05:15:45.289Z,78.60
2024-04-30T05:18:12.684Z,78.60
2024-04-30T05:20:40.064Z,78.60
2024-04-30T05:23:08.870Z,78.40
2024-04-30T05:25:36.383Z,78.30
2024-04-30T05:28:07.591Z,78.30
2024-04-30T05:30:34.994Z,77.90
2024-04-30T05:33:03.884Z,77.80
2024-04-30T05:35:31.234Z,78.10
2024-04-30T05:37:58.607Z,77.70
2024-04-30T05:40:25.977Z,77.80
2024-04-30T05:42:53.355Z,77.90
2024-04-30T05:45:20.754Z,77.60
2024-04-30T05:47:48.146Z,77.40
2024-04-30T05:50:15.590Z,77.30
2024-04-30T05:52:42.988Z,77.30
2024-04-30T05:55:10.492Z,77.70
2024-04-30T05:57:38.031Z,78.20
2024-04-30T06:00:05.790Z,78.00
2024-04-30T06:02:33.162Z,77.80
2024-04-30T06:05:00.683Z,78.10
2024-04-30T06:07:28.201Z,78.20
2024-04-30T06:09:57.474Z,77.90
2024-04-30T06:12:24.894Z,77.60
2024-04-30T06:14:52.281Z,76.60
2024-04-30T06:17:21.122Z,76.10
2024-04-30T06:19:48.763Z,76.00
2024-04-30T06:22:16.203Z,75.50
2024-04-30T06:24:43.594Z,75.20
2024-04-30T06:27:11.138Z,74.40
2024-04-30T06:29:39.071Z,74.40
2024-04-30T06:32:07.322Z,72.50
2024-04-30T06:34:34.814Z,73.10
2024-04-30T06:37:03.045Z,71.70
2024-04-30T06:39:30.533Z,71.40
2024-04-30T06:41:57.868Z,70.80
2024-04-30T06:44:25.360Z,70.80
2024-04-30T06:46:52.730Z,70.70
2024-04-30T06:49:21.323Z,70.20
2024-04-30T06:51:49.601Z,70.30
2024-04-30T06:54:17.028Z,70.90
2024-04-30T06:56:44.404Z,70.80
2024-04-30T06:59:11.745Z,70.30
2024-04-30T07:01:39.660Z,69.80
2024-04-30T07:04:07.208Z,70.20
2024-04-30T07:06:35.564Z,68.60
2024-04-30T07:09:02.973Z,68.40
2024-04-30T07:11:30.420Z,68.60
2024-04-30T07:13:57.840Z,68.60
2024-04-30T07:16:25.285Z,67.40
2024-04-30T07:18:52.921Z,67.60
2024-04-30T07:21:20.447Z,68.20
2024-04-30T07:23:47.780Z,67.50
2024-04-30T07:26:18.712Z,66.30
2024-04-30T07:28:46.671Z,66.00
2024-04-30T07:31:14.265Z,64.80
2024-04-30T07:33:43.263Z,64.40
2024-04-30T07:36:10.620Z,62.80
2024-04-30T07:38:38.026Z,63.50
2024-04-30T07:41:05.866Z,63.40
2024-04-30T07:43:33.353Z,63.70
2024-04-30T07:46:00.814Z,64.00
2024-04-30T07:48:28.317Z,63.00
2024-04-30T07:50:55.721Z,62.60
2024-04-30T07:53:23.148Z,62.80
2024-04-30T07:55:50.553Z,63.20
2024-04-30T07:58:17.972Z,62.40
2024-04-30T08:00:45.469Z,62.20
2024-04-30T08:03:12.965Z,60.20
2024-04-30T08:05:43.139Z,61.20
2024-04-30T08:08:13.999Z,61.10
2024-04-30T08:10:41.542Z,61.40
2024-04-30T08:13:10.182Z,61.30
2024-04-30T08:15:38.294Z,59.70
2024-04-30T08:18:05.884Z,60.30
2024-04-30T08:20:33.310Z,59.10
2024-04-30T08:23:00.720Z,61.10
2024-04-30T08:25:28.127Z,60.20
2024-04-30T08:27:56.915Z,60.40
2024-04-30T08:30:24.297Z,60.40
2024-04-30T08:32:52.155Z,59.70
2024-04-30T08:35:19.591Z,59.90
2024-04-30T08:37:51.798Z,59.60
2024-04-30T08:40:22.628Z,59.40
2024-04-30T08:42:50.902Z,58.00
2024-04-30T08:45:22.530Z,59.60
2024-04-30T08:47:52.759Z,57.20
2024-04-30T08:50:27.248Z,57.50
2024-04-30T08:52:57.377Z,56.50
2024-04-30T08:55:25.532Z,55.90
2024-04-30T08:57:52.999Z,56.30
2024-04-30T09:00:20.399Z,57.00
2024-04-30T09:02:54.262Z,59.30
2024-04-30T09:05:23.216Z,59.20
2024-04-30T09:07:50.974Z,58.10
2024-04-30T09:10:18.552Z,58.00
2024-04-30T09:12:45.947Z,58.60
2024-04-30T09:15:19.735Z,58.40
2024-04-30T09:17:47.302Z,58.20
2024-04-30T09:20:15.188Z,59.60
2024-04-30T09:22:53.004Z,58.70
2024-04-30T09:25:31.785Z,59.70
2024-04-30T09:27:59.230Z,60.20
2024-04-30T09:30:26.608Z,59.30
2024-04-30T09:32:54.236Z,58.70
2024-04-30T09:35:29.554Z,57.10
2024-04-30T09:38:01.244Z,57.30
2024-04-30T09:40:30.620Z,57.30
2024-04-30T09:42:58.159Z,57.40
2024-04-30T09:45:25.655Z,57.80
2024-04-30T09:47:54.824Z,59.90
2024-04-30T09:50:22.773Z,58.70
2024-04-30T09:52:51.468Z,57.20
2024-04-30T09:55:20.067Z,58.40
2024-04-30T09:57:50.696Z,57.30
2024-04-30T10:00:24.152Z,57.10
2024-04-30T10:02:57.104Z,55.70
2024-04-30T10:05:32.025Z,57.60
2024-04-30T10:08:01.183Z,55.90
2024-04-30T10:10:30.722Z,56.80
2024-04-30T10:13:12.065Z,54.80
2024-04-30T10:15:40.056Z,55.50
2024-04-30T10:18:09.606Z,56.60
2024-04-30T10:20:37.439Z,55.20
2024-04-30T10:23:06.410Z,55.00
2024-04-30T10:25:33.879Z,54.80
2024-04-30T10:28:08.989Z,52.70
2024-04-30T10:30:37.725Z,55.00
2024-04-30T10:33:05.852Z,54.20
2024-04-30T10:35:45.496Z,53.90
2024-04-30T10:38:13.814Z,53.60
2024-04-30T10:40:41.127Z,53.50
2024-04-30T10:43:11.002Z,52.50
2024-04-30T10:45:38.404Z,53.70
2024-04-30T10:48:10.979Z,54.30
2024-04-30T10:50:38.560Z,51.20
2024-04-30T10:53:06.578Z,53.10
2024-04-30T10:55:36.656Z,51.90
2024-04-30T10:58:13.963Z,54.20
2024-04-30T11:00:45.180Z,51.50
2024-04-30T11:03:13.288Z,51.10
2024-04-30T11:05:41.093Z,51.80
2024-04-30T11:08:08.614Z,51.70
2024-04-30T11:10:37.147Z,51.40
2024-04-30T11:13:05.381Z,49.50
2024-04-30T11:15:32.882Z,49.40
2024-04-30T11:18:00.768Z,49.80
2024-04-30T11:20:28.242Z,49.10
2024-04-30T11:22:55.613Z,49.80
2024-04-30T11:25:23.138Z,51.90
2024-04-30T11:27:50.493Z,48.10
2024-04-30T11:30:17.909Z,49.60
2024-04-30T11:32:45.331Z,48.40
2024-04-30T11:35:12.759Z,48.80
2024-04-30T11:37:41.504Z,49.30
2024-04-30T11:40:09.331Z,49.30
2024-04-30T11:42:44.090Z,50.00
2024-04-30T11:45:17.803Z,49.80
2024-04-30T11:47:45.268Z,46.30
2024-04-30T11:50:12.666Z,46.80
2024-04-30T11:52:40.936Z,46.40
2024-04-30T11:55:08.839Z,48.30
2024-04-30T11:57:37.229Z,49.30
2024-04-30T12:00:05.311Z,48.30
2024-04-30T12:02:32.804Z,47.40
2024-04-30T12:05:00.550Z,46.80
2024-04-30T12:07:28.364Z,46.60
2024-04-30T12:09:57.767Z,45.60
2024-04-30T12:12:25.139Z,46.70
2024-04-30T12:14:52.625Z,48.90
2024-04-30T12:17:20.248Z,47.00
2024-04-30T12:19:47.878Z,47.50
2024-04-30T12:22:15.319Z,47.70
2024-04-30T12:24:42.755Z,47.10
2024-04-30T12:27:10.233Z,45.20
2024-04-30T12:29:37.613Z,45.80
2024-04-30T12:32:07.588Z,46.20
2024-04-30T12:34:36.737Z,47.90
2024-04-30T12:37:05.322Z,45.70
2024-04-30T12:39:32.742Z,43.90
2024-04-30T12:42:00.143Z,44.80
2024-04-30T12:44:52.880Z,45.70
2024-04-30T12:47:20.411Z,45.30
2024-04-30T12:49:47.876Z,44.10
2024-04-30T12:52:15.370Z,42.10
2024-04-30T12:54:42.812Z,43.60
2024-04-30T12:57:10.239Z,43.30
2024-04-30T12:59:37.957Z,45.40
2024-04-30T13:02:05.450Z,44.20
2024-04-30T13:04:33.108Z,45.60
2024-04-30T13:07:00.654Z,42.40
2024-04-30T13:09:28.187Z,42.20
2024-04-30T13:11:55.584Z,41.40
2024-04-30T13:14:23.014Z,41.90
2024-04-30T13:16:50.366Z,41.90
2024-04-30T13:19:17.952Z,39.50
2024-04-30T13:21:45.384Z,39.50
2024-04-30T13:24:13.194Z,37.60
2024-04-30T13:26:40.609Z,38.50
2024-04-30T13:29:08.240Z,39.30
2024-04-30T13:31:36.966Z,37.80
2024-04-30T13:34:04.539Z,37.90
2024-04-30T13:36:31.916Z,35.70
2024-04-30T13:38:59.384Z,34.20
2024-04-30T13:41:26.773Z,34.00
2024-04-30T13:43:54.283Z,33.90
2024-04-30T13:46:21.742Z,33.60
2024-04-30T13:48:49.339Z,33.60
2024-04-30T13:51:16.866Z,33.70
2024-04-30T13:53:44.277Z,33.40
2024-04-30T13:56:14.723Z,31.40
2024-04-30T13:58:42.665Z,29.70
2024-04-30T14:01:16.992Z,30.40
2024-04-30T14:03:45.109Z,29.70
2024-04-30T14:06:16.089Z,30.10
2024-04-30T14:08:43.730Z,30.10
2024-04-30T14:11:11.128Z,29.40
2024-04-30T14:13:38.625Z,28.50
2024-04-30T14:16:06.710Z,27.80
2024-04-30T14:18:35.178Z,27.30
2024-04-30T14:21:02.971Z,27.70
2024-04-30T14:23:30.199Z,27.30
2024-04-30T14:25:58.001Z,27.20
2024-04-30T14:28:26.076Z,27.20
2024-04-30T14:30:53.694Z,26.30
2024-04-30T14:33:21.140Z,26.00
2024-04-30T14:36:07.398Z,26.80
2024-04-30T14:38:38.599Z,25.70
2024-04-30T14:41:07.797Z,25.50
2024-04-30T14:43:36.365Z,25.50
2024-04-30T14:46:03.803Z,26.20
2024-04-30T14:48:32.720Z,26.50
2024-04-30T14:51:00.711Z,26.60
2024-04-30T14:53:28.146Z,28.20
2024-04-30T14:55:55.505Z,26.60
2024-04-30T14:58:22.954Z,27.80
2024-04-30T15:00:50.403Z,28.40
2024-04-30T15:03:23.508Z,29.50
2024-04-30T15:05:53.870Z,30.20
2024-04-30T15:08:22.728Z,30.30
2024-04-30T15:10:50.313Z,30.70
2024-04-30T15:13:20.107Z,31.40
2024-04-30T15:15:48.327Z,32.90
2024-04-30T15:18:15.836Z,31.60
2024-04-30T15:20:43.296Z,31.60
2024-04-30T15:23:10.672Z,30.60
2024-04-30T15:25:38.230Z,30.40
2024-04-30T15:28:05.822Z,29.80
2024-04-30T15:30:33.170Z,29.20
2024-04-30T15:33:00.770Z,28.90
2024-04-30T15:35:28.205Z,28.70
2024-04-30T15:37:55.614Z,28.60
2024-04-30T15:40:23.275Z,26.40
2024-04-30T15:42:51.168Z,26.10
2024-04-30T15:45:18.577Z,25.70
2024-04-30T15:47:46.507Z,24.00
2024-04-30T15:50:14.096Z,24.90
2024-04-30T15:52:42.095Z,25.00
2024-04-30T15:55:09.453Z,25.00
2024-04-30T15:57:37.124Z,25.60
2024-04-30T16:00:05.383Z,25.60
2024-04-30T16:02:45.016Z,25.80
2024-04-30T16:05:13.040Z,26.00
2024-04-30T16:07:41.482Z,25.70
2024-04-30T16:10:09.181Z,25.50
2024-04-30T16:12:36.579Z,25.10
2024-04-30T16:15:04.044Z,26.00
2024-04-30T16:17:31.740Z,25.90
2024-04-30T16:19:59.409Z,26.00
2024-04-30T16:22:26.895Z,24.70
2024-04-30T16:24:54.306Z,24.30
2024-04-30T16:27:22.551Z,23.70
2024-04-30T16:29:49.893Z,23.30
2024-04-30T16:32:17.387Z,23.20
2024-04-30T16:34:44.893Z,23.40
2024-04-30T16:37:12.611Z,23.00
2024-04-30T16:39:39.941Z,22.10
2024-04-30T16:42:07.426Z,23.00
2024-04-30T16:44:41.372Z,23.80
2024-04-30T16:47:12.530Z,24.10
2024-04-30T16:49:39.944Z,23.50
2024-04-30T16:52:07.407Z,24.20
2024-04-30T16:54:34.785Z,25.90
2024-04-30T16:57:02.213Z,26.40
2024-04-30T16:59:29.576Z,26.70
2024-04-30T17:01:57.396Z,27.40
2024-04-30T17:04:25.718Z,28.20
2024-04-30T17:06:54.056Z,29.20
2024-04-30T17:09:24.294Z,28.60
2024-04-30T17:11:51.873Z,27.60
2024-04-30T17:14:19.784Z,29.10
2024-04-30T17:16:50.834Z,29.70
2024-04-30T17:19:22.526Z,31.00
2024-04-30T17:21:54.238Z,31.30
2024-04-30T17:24:26.129Z,32.90
2024-04-30T17:26:58.922Z,33.10
2024-04-30T17:29:28.114Z,34.20
2024-04-30T17:31:59.044Z,35.00
2024-04-30T17:34:29.528Z,34.20
2024-04-30T17:37:01.474Z,36.00
2024-04-30T17:39:33.059Z,35.30
2024-04-30T17:42:05.999Z,35.80
2024-04-30T17:44:39.092Z,36.30
2024-04-30T17:47:10.050Z,37.20
2024-04-30T17:49:39.331Z,36.60
2024-04-30T17:52:10.267Z,37.60
2024-04-30T17:54:41.249Z,37.40
2024-04-30T17:57:12.654Z,38.40
2024-04-30T17:59:44.689Z,39.00
2024-04-30T18:02:16.889Z,40.00
2024-04-30T18:04:49.093Z,40.30
2024-04-30T18:07:20.704Z,42.10
2024-04-30T18:09:49.675Z,42.50
2024-04-30T18:12:21.547Z,43.10
2024-04-30T18:14:50.933Z,44.50
2024-04-30T18:17:18.795Z,44.90
2024-04-30T18:19:47.489Z,45.60
2024-04-30T18:22:15.546Z,46.40
2024-04-30T18:24:43.558Z,46.60
2024-04-30T18:27:13.440Z,47.00
2024-04-30T18:29:41.655Z,48.00
2024-04-30T18:32:09.620Z,47.40
2024-04-30T18:34:37.946Z,46.90
2024-04-30T18:37:10.759Z,48.70
2024-04-30T18:39:41.026Z,48.90
2024-04-30T18:42:09.357Z,49.30
2024-04-30T18:44:37.072Z,49.70
2024-04-30T18:47:04.879Z,50.80
2024-04-30T18:49:32.552Z,51.10
2024-04-30T18:52:00.277Z,51.30
2024-04-30T18:54:28.331Z,52.00
2024-04-30T18:56:56.559Z,51.90
2024-04-30T18:59:24.262Z,52.60
2024-04-30T19:01:52.138Z,53.20
2024-04-30T19:04:20.054Z,53.30
2024-04-30T19:06:47.975Z,53.70
2024-04-30T19:09:16.098Z,54.10
2024-04-30T19:11:45.076Z,54.50
2024-04-30T19:14:13.706Z,54.80
2024-04-30T19:16:42.609Z,55.10
2024-04-30T19:19:18.843Z,55.50
2024-04-30T19:21:50.242Z,55.50
2024-04-30T19:24:21.404Z,55.80
2024-04-30T19:26:49.765Z,55.30
2024-04-30T19:29:17.254Z,55.20
2024-04-30T19:31:44.829Z,55.40
2024-04-30T19:34:14.721Z,55.00
2024-04-30T19:36:42.320Z,55.10
2024-04-30T19:39:09.863Z,54.30
2024-04-30T19:41:38.310Z,53.80
2024-04-30T19:44:05.558Z,53.70
2024-04-30T19:46:32.921Z,53.60
2024-04-30T19:49:01.300Z,53.30
2024-04-30T19:51:28.602Z,53.90
2024-04-30T19:53:56.028Z,53.30
2024-04-30T19:56:23.889Z,53.10
2024-04-30T19:58:57.849Z,53.60
2024-04-30T20:01:29.154Z,54.40
2024-04-30T20:03:58.562Z,54.60
2024-04-30T20:06:26.530Z,55.10
2024-04-30T20:08:54.040Z,54.50
2024-04-30T20:11:25.394Z,54.80
2024-04-30T20:13:54.512Z,55.30
2024-04-30T20:16:24.996Z,55.80
2024-04-30T20:18:52.790Z,56.30
2024-04-30T20:21:20.397Z,56.50
2024-04-30T20:23:47.775Z,56.40
2024-04-30T20:26:15.901Z,56.40
2024-04-30T20:28:43.988Z,56.80
2024-04-30T20:31:12.012Z,57.40
2024-04-30T20:33:41.379Z,57.70
2024-04-30T20:36:19.721Z,58.00
2024-04-30T20:38:47.586Z,58.30
2024-04-30T20:41:15.800Z,58.30
2024-04-30T20:43:43.480Z,58.40
2024-04-30T20:46:11.455Z,58.50
2024-04-30T20:48:39.644Z,58.60
2024-04-30T20:51:07.229Z,58.60
2024-04-30T20:53:35.478Z,58.60
2024-04-30T20:56:06.288Z,59.20
2024-04-30T20:58:35.007Z,59.40
2024-04-30T21:01:04.544Z,59.60
2024-04-30T21:03:32.493Z,59.70
2024-04-30T21:06:01.298Z,59.00
2024-04-30T21:08:34.438Z,58.90
2024-04-30T21:11:02.460Z,58.00
2024-04-30T21:13:30.767Z,57.20
2024-04-30T21:15:59.430Z,57.30
2024-04-30T21:18:27.492Z,57.60
2024-04-30T21:20:55.358Z,58.30
2024-04-30T21:23:25.103Z,58.30
2024-04-30T21:25:53.536Z,58.30
2024-04-30T21:28:22.646Z,58.10
2024-04-30T21:30:52.009Z,58.50
2024-04-30T21:33:20.763Z,58.80
2024-04-30T21:35:48.959Z,58.10
2024-04-30T21:38:18.239Z,57.00
2024-04-30T21:40:45.866Z,57.20
2024-04-30T21:43:13.543Z,56.90
2024-04-30T21:45:41.463Z,56.30
2024-04-30T21:48:09.941Z,56.00
2024-04-30T21:50:37.663Z,55.30
2024-04-30T21:53:06.173Z,55.40
2024-04-30T21:55:33.918Z,55.10
2024-04-30T21:58:02.343Z,55.70
2024-04-30T22:00:30.434Z,55.30
2024-04-30T22:03:03.190Z,55.00
2024-04-30T22:05:32.660Z,54.80
2024-04-30T22:08:00.697Z,54.60
2024-04-30T22:10:28.523Z,54.90
2024-04-30T22:12:56.963Z,55.00
2024-04-30T22:15:24.573Z,54.80
2024-04-30T22:17:52.054Z,54.60
2024-04-30T22:20:19.451Z,54.50
2024-04-30T22:22:46.811Z,54.60
2024-04-30T22:25:14.313Z,54.80
2024-04-30T22:27:41.742Z,55.00
2024-04-30T22:30:17.567Z,55.10
2024-04-30T22:32:48.993Z,55.40
2024-04-30T22:35:16.560Z,55.90
2024-04-30T22:37:44.047Z,55.90
2024-04-30T22:40:11.503Z,55.40
2024-04-30T22:42:39.818Z,56.10
2024-04-30T22:45:07.192Z,56.10
2024-04-30T22:47:34.776Z,56.20
2024-04-30T22:50:02.366Z,56.30
2024-04-30T22:52:29.852Z,56.70
2024-04-30T22:54:57.302Z,57.00
2024-04-30T22:57:24.870Z,57.00
2024-04-30T22:59:52.319Z,56.80
2024-04-30T23:02:19.658Z,57.90
2024-04-30T23:04:47.438Z,58.90
2024-04-30T23:07:14.831Z,59.30
2024-04-30T23:09:42.188Z,59.80
2024-04-30T23:12:09.585Z,59.90
2024-04-30T23:14:36.942Z,59.80
2024-04-30T23:17:04.492Z,59.80
2024-04-30T23:19:32.109Z,60.10
2024-04-30T23:21:59.669Z,60.00
2024-04-30T23:24:27.250Z,59.70
2024-04-30T23:26:54.820Z,59.50
2024-04-30T23:29:23.838Z,59.10
2024-04-30T23:31:52.308Z,59.00
2024-04-30T23:34:19.689Z,58.90
2024-04-30T23:36:47.180Z,58.80
2024-04-30T23:39:14.726Z,58.30
2024-04-30T23:41:42.047Z,58.40
2024-04-30T23:44:09.594Z,58.70
2024-04-30T23:46:36.964Z,58.50
2024-04-30T23:49:04.347Z,58.60
2024-04-30T23:51:31.937Z,58.40
2024-04-30T23:53:59.421Z,58.00
2024-04-30T23:56:26.776Z,58.60
2024-04-30T23:58:54.124Z,58.80
